Portada
METAR-TAF:

METAR-TAF

Aeroports :

Txità, Rússia

latitud: 52-05N, longitud: 113-29E, altitud: 685 m

Observació

L'informe es va fer fa 48 minuts, a les 18:00 UTC
Vent 6 kt del Nord
Temperatura -18°C
Humitat 84%
Pressió 1018 hPa
Visibilitat 10 km o més

METAR: UIAA 291800Z AUTO 01003MPS 9999 NCD M18/M20 Q1018 RMK QFE705/0940

Hora: 03:48 (18:48 UTC)

Pronòstic

L'informe es va fer fa 1 hora i 48 minuts, a les 17:00 UTC
Pronòstic vàlid del 29 a les 18 UTC al 30 a les 18 UTC
Vent 6 kt del Nord/Nord-Est
Visibilitat 10 km o més
Temporalment
l' 29 a les 18 UTC al 30 a les 03 UTC
Visibilitat: 3100 m
boirina, fum

TAF: UIAA 291700Z 2918/3018 02003MPS 9999 NSC TEMPO 2918/3003 3100 BR FU

Observacions i pronòstics meteorològics de més de 4000 aeroports (METAR i TAF).

Les estacions disponibles són els punts grocs i vermells al mapa.

Posi el ratolí al punt desitjat per veure el nom de l'estació.

Feu clic per veure les observacions i els pronòstics meteorològics.

Per canviar el mapa: feu clic els botons verds amb una creu de color negre per apropar; al botó verd amb un guió per allunyar la imatge; o en les fletxes verdes per a mapes adjacents.


METAR-TAF: